Time;durP1;ratioP1;P1;durP2;ratioP2;P2;SDS_P1;SDS_P2;PMS_P1;PMS_P2;Temp;Humidity;BMP_temperature;BMP_pressure;BME280_temperature;BME280_humidity;BME280_pressure;Samples;Min_cycle;Max_cycle;Signal;HPM_P1;HPM_P2
2022/03/31 00:00:35;;;;;;;4.80;2.40;;;;;;;3.40;73.34;99668.13;6043776;28;20038;-69
2022/03/31 00:03:30;;;;;;;6.32;1.80;;;;;;;3.39;73.23;99674.34;6052429;28;20033;-69
2022/03/31 00:06:26;;;;;;;7.80;2.33;;;;;;;3.39;73.06;99674.34;6053400;28;20083;-68
2022/03/31 00:09:21;;;;;;;4.37;1.83;;;;;;;3.39;71.97;99675.19;6052965;28;20179;-70
2022/03/31 00:12:17;;;;;;;8.27;2.15;;;;;;;3.49;71.71;99670.00;6052970;28;20469;-69
2022/03/31 00:15:12;;;;;;;7.40;2.10;;;;;;;3.48;71.81;99669.16;6043837;28;20030;-69
2022/03/31 00:18:09;;;;;;;4.50;1.80;;;;;;;3.48;71.95;99668.31;6049994;28;20281;-70
2022/03/31 00:21:04;;;;;;;8.40;2.33;;;;;;;3.52;71.74;99665.34;6052070;28;20026;-70
2022/03/31 00:23:59;;;;;;;8.80;2.27;;;;;;;3.45;72.11;99651.06;6053027;28;20037;-70
2022/03/31 00:26:54;;;;;;;6.33;2.30;;;;;;;3.48;71.42;99652.59;6052658;28;20382;-70
2022/03/31 00:29:50;;;;;;;11.73;2.63;;;;;;;3.47;71.94;99657.03;6052928;28;20049;-70
2022/03/31 00:32:45;;;;;;;7.18;2.90;;;;;;;3.43;72.48;99658.22;6052425;28;20032;-68
2022/03/31 00:35:40;;;;;;;7.40;2.63;;;;;;;3.38;72.27;99657.78;6052686;28;20038;-69
2022/03/31 00:38:36;;;;;;;12.27;2.30;;;;;;;3.35;72.50;99655.41;6053037;28;20061;-69
2022/03/31 00:41:38;;;;;;;10.23;2.77;;;;;;;3.39;72.52;99659.47;6052076;28;20040;-68
2022/03/31 00:44:33;;;;;;;7.78;2.17;;;;;;;3.35;72.59;99652.78;6051343;28;20080;-69
2022/03/31 00:47:29;;;;;;;9.27;3.23;;;;;;;3.35;73.30;99655.41;6052649;28;20060;-68
2022/03/31 00:50:25;;;;;;;6.27;2.20;;;;;;;3.25;72.99;99646.66;6052346;28;20046;-69
2022/03/31 00:53:20;;;;;;;6.25;2.17;;;;;;;3.15;73.86;99653.63;6053050;28;20038;-69
2022/03/31 00:56:16;;;;;;;7.33;2.80;;;;;;;3.13;74.43;99655.50;6052930;28;20116;-70
2022/03/31 00:59:12;;;;;;;6.30;2.60;;;;;;;3.13;73.80;99647.66;6051712;28;20399;-69
2022/03/31 01:02:08;;;;;;;11.20;2.80;;;;;;;3.11;74.38;99648.75;6051455;28;20042;-68
2022/03/31 01:05:05;;;;;;;6.07;2.40;;;;;;;3.09;73.80;99642.81;6052569;28;20026;-68
2022/03/31 01:08:02;;;;;;;7.55;2.70;;;;;;;3.10;74.29;99636.63;6052038;28;20029;-68
2022/03/31 01:10:58;;;;;;;8.38;2.95;;;;;;;3.06;73.64;99640.44;6051609;28;20112;-69
2022/03/31 01:13:53;;;;;;;8.95;3.17;;;;;;;3.09;73.75;99638.41;6050347;28;20401;-69
2022/03/31 01:16:49;;;;;;;8.13;2.95;;;;;;;3.04;74.40;99643.19;6049691;28;20188;-69
2022/03/31 01:19:44;;;;;;;7.80;2.50;;;;;;;3.06;74.17;99640.44;6048154;28;20109;-69
2022/03/31 01:22:39;;;;;;;10.17;2.43;;;;;;;3.02;74.35;99637.22;6046439;28;20026;-69
2022/03/31 01:25:35;;;;;;;7.93;2.80;;;;;;;2.99;74.00;99640.09;6050565;28;20037;-70
2022/03/31 01:28:30;;;;;;;8.27;2.57;;;;;;;3.00;73.86;99647.00;6051556;28;20030;-69
2022/03/31 01:31:26;;;;;;;6.00;2.67;;;;;;;2.97;74.27;99647.25;6050721;28;20647;-69
2022/03/31 01:34:21;;;;;;;5.22;2.47;;;;;;;2.95;73.93;99638.69;6051376;28;20290;-69
2022/03/31 01:37:17;;;;;;;11.17;3.20;;;;;;;2.99;73.94;99635.69;6051521;28;20538;-69
2022/03/31 01:40:13;;;;;;;6.97;3.27;;;;;;;3.01;74.34;99630.34;6050650;28;20049;-68
2022/03/31 01:43:08;;;;;;;12.25;3.88;;;;;;;3.08;75.25;99633.28;6051023;28;20045;-68
2022/03/31 01:46:05;;;;;;;14.52;3.80;;;;;;;3.08;76.53;99621.00;6051208;28;20084;-69
2022/03/31 01:49:01;;;;;;;11.45;3.85;;;;;;;3.12;77.50;99621.59;6051210;28;20712;-69
2022/03/31 01:51:56;;;;;;;12.67;4.30;;;;;;;3.08;78.61;99614.94;6054489;28;20044;-68
2022/03/31 01:54:51;;;;;;;9.52;4.05;;;;;;;3.07;79.09;99608.91;6050743;28;20038;-69
2022/03/31 01:57:47;;;;;;;12.37;4.47;;;;;;;3.06;80.51;99612.47;6051059;28;20030;-67
2022/03/31 02:00:42;;;;;;;14.73;5.43;;;;;;;3.07;80.90;99608.91;6049959;28;20033;-68
2022/03/31 02:03:38;;;;;;;16.73;5.20;;;;;;;3.08;81.89;99607.91;6050770;28;20033;-67
2022/03/31 02:06:34;;;;;;;17.38;6.32;;;;;;;3.00;82.58;99602.47;6050816;28;20285;-68
2022/03/31 02:09:29;;;;;;;19.33;7.13;;;;;;;2.91;82.42;99600.59;6051152;28;20033;-68
2022/03/31 02:12:24;;;;;;;15.45;5.88;;;;;;;2.93;83.02;99603.94;6049681;28;20029;-69
2022/03/31 02:15:22;;;;;;;17.03;6.33;;;;;;;2.88;83.17;99603.50;6051637;28;20033;-68
2022/03/31 02:18:18;;;;;;;16.80;6.05;;;;;;;2.85;84.00;99594.09;6050262;28;20034;-69
2022/03/31 02:21:13;;;;;;;19.60;5.57;;;;;;;2.86;84.16;99594.91;6050105;28;20021;-67
2022/03/31 02:24:08;;;;;;;14.97;5.97;;;;;;;2.88;84.36;99600.88;6050456;28;20112;-69
2022/03/31 02:27:04;;;;;;;13.67;5.60;;;;;;;2.95;84.14;99602.03;6050035;28;20113;-69
2022/03/31 02:30:00;;;;;;;12.88;4.90;;;;;;;2.95;84.28;99602.03;6050478;28;20672;-69
2022/03/31 02:32:55;;;;;;;12.15;5.65;;;;;;;3.00;83.75;99599.88;6050010;28;20044;-68
2022/03/31 02:35:50;;;;;;;16.10;5.53;;;;;;;2.95;83.45;99589.78;6050777;28;20068;-67
2022/03/31 02:38:46;;;;;;;16.00;5.88;;;;;;;2.93;84.50;99580.38;6050113;28;20034;-68
2022/03/31 02:41:42;;;;;;;17.77;5.43;;;;;;;3.02;83.35;99591.91;6048915;28;20033;-68
2022/03/31 02:44:37;;;;;;;18.85;6.63;;;;;;;3.02;83.35;99577.00;6049763;28;20065;-69
2022/03/31 02:47:34;;;;;;;13.60;6.77;;;;;;;3.08;83.38;99579.13;6049896;28;20189;-68
2022/03/31 02:50:30;;;;;;;15.43;7.05;;;;;;;3.09;83.58;99570.31;6049557;28;20033;-69
2022/03/31 02:56:39;;;;;;;20.08;6.97;;;;;;;3.06;83.06;99573.19;6050029;28;20038;-71
2022/03/31 02:59:34;;;;;;;18.30;7.47;;;;;;;3.06;83.86;99567.94;6049877;28;20050;-68
2022/03/31 03:02:29;;;;;;;14.10;5.93;;;;;;;3.09;84.16;99567.69;6048931;28;20492;-68
2022/03/31 03:05:25;;;;;;;17.67;7.40;;;;;;;3.10;83.80;99568.53;6050096;28;20036;-67
2022/03/31 03:08:21;;;;;;;19.27;7.25;;;;;;;3.08;84.46;99566.03;6049394;28;20026;-69
2022/03/31 03:11:17;;;;;;;22.05;6.30;;;;;;;3.09;83.74;99574.72;6048634;28;20108;-68
2022/03/31 03:14:13;;;;;;;24.83;7.47;;;;;;;3.05;84.01;99566.28;6049275;28;20180;-68
2022/03/31 03:17:10;;;;;;;20.20;7.65;;;;;;;3.06;84.81;99573.19;6045735;28;20405;-67
2022/03/31 03:20:06;;;;;;;19.33;8.05;;;;;;;3.04;84.30;99575.09;6049024;28;20076;-70
2022/03/31 03:23:01;;;;;;;13.70;6.63;;;;;;;3.02;84.67;99563.91;6049016;28;20029;-68
2022/03/31 03:25:57;;;;;;;16.30;6.10;;;;;;;3.04;85.41;99572.50;6049603;28;20036;-69
2022/03/31 03:28:52;;;;;;;17.70;6.25;;;;;;;3.06;85.32;99578.41;6049036;28;20030;-67
2022/03/31 03:31:47;;;;;;;17.50;7.13;;;;;;;3.03;85.82;99575.22;6048653;28;20038;-68
2022/03/31 03:34:43;;;;;;;17.87;6.47;;;;;;;2.98;85.06;99570.38;6049426;28;20495;-67
2022/03/31 03:37:39;;;;;;;20.60;6.83;;;;;;;2.92;84.15;99581.34;6048824;28;20045;-69
2022/03/31 03:40:34;;;;;;;17.27;5.65;;;;;;;2.86;82.79;99587.06;6048702;28;20046;-67
2022/03/31 03:43:31;;;;;;;16.70;5.83;;;;;;;2.82;83.25;99589.13;6048740;28;20026;-68
2022/03/31 03:46:26;;;;;;;15.13;5.07;;;;;;;2.75;83.12;99584.50;6049437;28;20076;-68
2022/03/31 03:49:21;;;;;;;17.03;5.60;;;;;;;2.76;83.65;99591.41;6048783;28;20029;-67
2022/03/31 03:52:17;;;;;;;17.80;5.50;;;;;;;2.78;83.68;99589.47;6048216;28;20272;-68
2022/03/31 03:55:12;;;;;;;16.60;6.30;;;;;;;2.77;83.94;99585.22;6050546;28;20265;-68
2022/03/31 03:58:08;;;;;;;18.47;6.83;;;;;;;2.78;83.77;99579.00;6048454;28;20492;-69
2022/03/31 04:01:03;;;;;;;18.17;6.67;;;;;;;2.82;84.65;99586.50;6048861;28;20284;-69
2022/03/31 04:03:58;;;;;;;16.47;6.87;;;;;;;2.83;84.36;99587.31;6048952;28;20049;-68
2022/03/31 04:06:54;;;;;;;18.67;7.40;;;;;;;2.85;84.55;99580.19;6048966;28;20392;-69
2022/03/31 04:09:49;;;;;;;19.33;6.80;;;;;;;2.95;84.18;99584.53;6048701;28;20041;-68
2022/03/31 04:12:44;;;;;;;20.80;7.13;;;;;;;2.90;84.47;99593.72;6047749;28;20084;-68
2022/03/31 04:15:40;;;;;;;13.00;6.20;;;;;;;2.88;84.89;99585.19;6048659;28;20044;-69
2022/03/31 04:18:35;;;;;;;14.23;5.87;;;;;;;2.88;84.08;99587.78;6048598;28;20503;-68
2022/03/31 04:21:30;;;;;;;17.87;7.13;;;;;;;2.88;84.02;99580.75;6048290;28;20088;-69
2022/03/31 04:24:26;;;;;;;18.53;7.27;;;;;;;2.80;84.34;99582.34;6049217;28;20068;-69
2022/03/31 04:27:21;;;;;;;19.80;6.03;;;;;;;2.82;84.69;99586.50;6048340;28;20030;-67
2022/03/31 04:30:20;;;;;;;15.47;6.33;;;;;;;2.85;83.88;99590.66;6048334;28;20029;-68
2022/03/31 04:33:16;;;;;;;22.08;9.07;;;;;;;2.79;83.52;99588.53;6048403;28;20141;-68
2022/03/31 04:36:11;;;;;;;31.87;9.50;;;;;;;2.79;83.74;99593.75;6047651;28;20037;-69
2022/03/31 04:39:07;;;;;;;25.92;8.27;;;;;;;2.82;83.96;99590.91;6048286;28;20044;-68
2022/03/31 04:42:02;;;;;;;30.90;11.00;;;;;;;2.87;83.80;99589.56;6047750;28;20045;-68
2022/03/31 04:44:58;;;;;;;22.00;9.65;;;;;;;2.93;83.12;99588.25;6048932;28;20427;-69
2022/03/31 04:47:54;;;;;;;29.00;12.37;;;;;;;2.94;83.07;99585.50;6048652;28;20137;-68
2022/03/31 04:50:49;;;;;;;17.27;7.47;;;;;;;2.92;82.23;99587.41;6052265;28;20272;-70
2022/03/31 04:53:44;;;;;;;21.33;7.95;;;;;;;2.98;82.95;99599.16;6052560;28;20038;-69
2022/03/31 04:56:39;;;;;;;27.70;10.33;;;;;;;2.95;83.45;99602.03;6052819;28;20436;-67
2022/03/31 04:59:35;;;;;;;19.47;7.17;;;;;;;2.95;83.79;99597.63;6053089;28;20045;-69
2022/03/31 05:02:30;;;;;;;22.37;8.57;;;;;;;2.87;84.34;99573.88;6051668;28;20049;-69
2022/03/31 05:05:26;;;;;;;24.00;10.02;;;;;;;2.92;83.82;99586.56;6052945;28;20030;-69
2022/03/31 05:08:21;;;;;;;19.70;7.45;;;;;;;2.96;84.00;99590.63;6025960;28;20585;-68
2022/03/31 05:11:17;;;;;;;24.07;10.20;;;;;;;2.94;83.87;99597.75;6055686;28;20029;-67
2022/03/31 05:14:12;;;;;;;22.65;9.70;;;;;;;2.95;83.28;99602.03;6055454;28;20790;-67
2022/03/31 05:17:07;;;;;;;22.37;9.40;;;;;;;2.95;83.64;99596.78;6052136;28;20108;-68
2022/03/31 05:20:10;;;;;;;23.47;9.37;;;;;;;2.94;83.34;99589.88;6051677;28;20095;-68
2022/03/31 05:23:05;;;;;;;27.75;11.70;;;;;;;2.97;83.11;99594.88;6051953;28;20315;-69
2022/03/31 05:26:00;;;;;;;32.70;11.03;;;;;;;2.99;82.64;99592.94;6051213;28;20026;-69
2022/03/31 05:28:56;;;;;;;32.70;12.20;;;;;;;2.95;82.95;99597.63;6051952;28;20030;-68
2022/03/31 05:31:51;;;;;;;33.80;12.90;;;;;;;2.99;82.28;99593.78;6049929;28;20044;-70
2022/03/31 05:34:47;;;;;;;39.60;15.75;;;;;;;2.99;82.18;99590.34;6051794;28;20042;-69
2022/03/31 05:37:42;;;;;;;39.70;12.27;;;;;;;3.00;82.57;99586.78;6051069;28;20034;-69
2022/03/31 05:40:37;;;;;;;27.17;9.60;;;;;;;3.07;82.33;99589.72;6050077;28;20487;-68
2022/03/31 05:43:32;;;;;;;35.30;13.90;;;;;;;3.07;82.16;99598.44;6051863;28;20033;-70
2022/03/31 05:46:29;;;;;;;34.10;12.18;;;;;;;3.04;81.91;99601.28;6050935;28;20030;-67
2022/03/31 05:49:24;;;;;;;26.27;10.23;;;;;;;3.05;81.43;99607.34;6048843;28;20048;-70
2022/03/31 05:52:20;;;;;;;32.70;11.13;;;;;;;3.05;81.63;99597.69;6045929;28;20034;-70
2022/03/31 05:55:17;;;;;;;40.35;14.80;;;;;;;3.07;81.91;99605.44;6049843;28;20019;-68
2022/03/31 05:58:13;;;;;;;33.55;12.20;;;;;;;3.06;82.26;99615.09;6051290;28;20041;-69
2022/03/31 06:01:08;;;;;;;31.58;9.27;;;;;;;3.09;82.41;99622.69;6045176;28;20044;-69
2022/03/31 06:04:04;;;;;;;27.43;12.00;;;;;;;3.03;82.77;99619.72;6048578;28;20065;-68
2022/03/31 06:06:59;;;;;;;23.50;9.63;;;;;;;3.08;82.54;99628.88;6049817;28;20037;-68
2022/03/31 06:09:54;;;;;;;22.10;7.90;;;;;;;3.12;82.07;99619.81;6043667;28;20035;-69
2022/03/31 06:12:50;;;;;;;18.50;8.13;;;;;;;3.08;82.48;99628.88;6044989;28;20029;-70
2022/03/31 06:15:45;;;;;;;24.50;8.95;;;;;;;3.11;82.21;99628.63;6050237;28;20037;-69
2022/03/31 06:18:42;;;;;;;19.47;7.50;;;;;;;3.07;82.18;99629.00;6049865;28;21577;-69
2022/03/31 06:21:37;;;;;;;19.05;7.57;;;;;;;3.14;81.65;99633.63;6047638;28;20112;-68
2022/03/31 06:24:32;;;;;;;22.40;8.03;;;;;;;3.27;82.04;99633.44;6049767;28;20045;-68
2022/03/31 06:27:28;;;;;;;18.85;7.18;;;;;;;3.28;81.18;99625.47;6049798;28;20366;-69
2022/03/31 06:30:23;;;;;;;14.03;6.30;;;;;;;3.08;80.16;99633.28;6049341;28;20041;-68
2022/03/31 06:33:18;;;;;;;8.27;3.40;;;;;;;3.02;79.91;99618.88;6049964;28;20034;-68
2022/03/31 06:36:14;;;;;;;11.52;5.80;;;;;;;2.98;78.36;99641.06;6049187;28;20477;-69
2022/03/31 06:39:09;;;;;;;10.85;3.60;;;;;;;3.02;78.04;99641.66;6049688;28;20104;-69
2022/03/31 06:42:05;;;;;;;6.43;3.30;;;;;;;3.08;76.92;99649.81;6048450;28;20117;-68
2022/03/31 06:45:01;;;;;;;9.77;3.78;;;;;;;3.09;75.56;99640.19;6049142;28;20280;-69
2022/03/31 06:47:57;;;;;;;10.55;4.30;;;;;;;3.00;75.21;99649.63;6050072;28;20038;-69
2022/03/31 06:50:52;;;;;;;12.30;4.25;;;;;;;2.94;74.28;99645.69;6048981;28;20045;-70
2022/03/31 06:53:48;;;;;;;15.73;4.90;;;;;;;2.83;73.93;99642.28;6049079;28;20462;-69
2022/03/31 06:56:43;;;;;;;13.03;4.60;;;;;;;2.94;73.21;99647.47;6048867;28;20038;-68
2022/03/31 06:59:40;;;;;;;9.53;3.67;;;;;;;2.87;72.56;99641.94;6049454;28;20485;-69
2022/03/31 07:02:35;;;;;;;7.50;4.07;;;;;;;2.89;72.48;99641.78;6048823;28;20087;-67
2022/03/31 07:05:31;;;;;;;10.37;4.23;;;;;;;2.98;72.27;99649.75;6049236;28;20030;-67
2022/03/31 07:08:26;;;;;;;12.48;5.47;;;;;;;3.12;72.24;99646.00;6049318;28;20026;-69
2022/03/31 07:11:21;;;;;;;8.40;4.63;;;;;;;3.01;71.75;99646.06;6047897;28;20618;-71
2022/03/31 07:14:17;;;;;;;14.30;5.87;;;;;;;3.20;71.10;99637.53;6049041;28;20042;-69
2022/03/31 07:17:12;;;;;;;13.50;4.93;;;;;;;3.25;69.96;99657.13;6048204;28;20037;-71
2022/03/31 07:20:09;;;;;;;8.63;4.38;;;;;;;3.21;69.50;99649.63;6048169;28;20056;-71
2022/03/31 07:23:06;;;;;;;17.10;6.15;;;;;;;3.29;69.03;99642.81;6048399;28;20032;-71
2022/03/31 07:26:01;;;;;;;13.85;5.28;;;;;;;3.57;68.81;99646.59;6048418;28;20053;-71
2022/03/31 07:28:57;;;;;;;13.23;5.63;;;;;;;3.44;68.09;99652.03;6048927;28;20025;-70
2022/03/31 07:31:52;;;;;;;15.77;5.47;;;;;;;3.41;68.85;99649.69;6048325;28;20408;-71
2022/03/31 07:34:47;;;;;;;14.98;5.57;;;;;;;3.50;68.18;99650.72;6048131;28;20037;-69
2022/03/31 07:37:43;;;;;;;13.33;5.67;;;;;;;3.43;67.61;99650.38;6047536;28;20037;-70
2022/03/31 07:40:39;;;;;;;14.90;6.15;;;;;;;3.50;67.31;99645.47;6047451;28;20030;-71
2022/03/31 07:43:34;;;;;;;11.70;5.25;;;;;;;3.56;67.98;99651.00;6048443;28;20041;-71
2022/03/31 07:46:32;;;;;;;14.02;5.22;;;;;;;3.45;67.32;99658.94;6048028;28;20396;-71
2022/03/31 07:49:27;;;;;;;9.32;5.15;;;;;;;3.54;67.46;99650.31;6048886;28;20567;-70
2022/03/31 07:52:23;;;;;;;10.67;5.07;;;;;;;3.71;67.55;99650.69;6047380;28;20030;-70
2022/03/31 07:55:19;;;;;;;13.13;5.45;;;;;;;3.68;67.33;99666.69;6048598;28;20030;-69
2022/03/31 07:58:14;;;;;;;10.80;4.97;;;;;;;3.51;67.84;99660.22;6049219;28;20034;-69
2022/03/31 08:01:11;;;;;;;14.53;6.50;;;;;;;3.67;67.76;99662.41;6047506;28;20092;-71
2022/03/31 08:04:06;;;;;;;15.38;5.43;;;;;;;3.69;67.75;99655.25;6048534;28;20046;-71
2022/03/31 08:07:02;;;;;;;14.82;5.85;;;;;;;3.53;67.90;99653.06;6049820;28;20034;-71
2022/03/31 08:09:57;;;;;;;12.43;6.20;;;;;;;3.37;68.45;99657.94;6047883;28;20389;-71
2022/03/31 08:12:53;;;;;;;13.30;5.80;;;;;;;3.34;68.48;99664.22;6052784;28;20054;-71
2022/03/31 08:15:48;;;;;;;15.15;6.40;;;;;;;3.28;69.09;99662.13;6048275;28;20073;-71
2022/03/31 08:18:43;;;;;;;12.37;6.20;;;;;;;3.29;69.38;99658.53;6047634;28;20511;-71
2022/03/31 08:21:39;;;;;;;13.53;5.90;;;;;;;3.38;69.04;99663.03;6047734;28;20054;-72
2022/03/31 08:24:34;;;;;;;11.57;4.88;;;;;;;3.60;68.25;99651.59;6049608;28;20030;-71
2022/03/31 08:27:32;;;;;;;9.70;5.00;;;;;;;3.87;67.96;99651.06;6052703;28;20032;-70
2022/03/31 08:30:28;;;;;;;11.82;5.25;;;;;;;3.65;67.87;99649.41;6051778;28;20029;-71
2022/03/31 08:33:23;;;;;;;14.15;6.07;;;;;;;3.66;68.38;99650.25;6051838;28;20497;-70
2022/03/31 08:36:19;;;;;;;14.00;6.23;;;;;;;3.78;67.81;99657.09;6052757;28;20040;-71
2022/03/31 08:39:15;;;;;;;14.52;6.38;;;;;;;3.86;67.50;99657.28;6052000;28;20095;-72
2022/03/31 08:42:11;;;;;;;14.90;6.57;;;;;;;3.89;68.07;99662.25;6051871;28;20065;-70
2022/03/31 08:45:10;;;;;;;12.00;5.60;;;;;;;3.79;68.17;99661.38;6052042;28;20439;-70
2022/03/31 08:48:06;;;;;;;15.55;6.50;;;;;;;3.61;68.38;99664.56;6048285;28;20037;-67
2022/03/31 08:51:01;;;;;;;13.15;7.20;;;;;;;3.82;68.16;99664.56;6051390;28;20381;-68
2022/03/31 08:53:57;;;;;;;13.80;6.13;;;;;;;3.75;68.21;99659.97;6051239;28;20034;-69
2022/03/31 08:56:53;;;;;;;13.23;5.37;;;;;;;3.94;68.16;99668.75;6050163;28;20040;-69
2022/03/31 08:59:49;;;;;;;15.27;6.32;;;;;;;4.11;66.57;99662.94;6051379;28;20056;-68
2022/03/31 09:03:04;;;;;;;13.77;6.18;;;;;;;4.13;66.85;99654.94;6049924;28;20440;-71
2022/03/31 09:05:59;;;;;;;9.20;4.47;;;;;;;4.11;66.22;99662.94;6050747;28;20484;-71
2022/03/31 09:09:03;;;;;;;16.33;5.78;;;;;;;4.17;67.13;99664.19;6050139;28;20037;-67
2022/03/31 09:11:58;;;;;;;10.63;5.32;;;;;;;4.28;66.78;99668.50;6050683;28;20087;-68
2022/03/31 09:14:54;;;;;;;10.77;5.17;;;;;;;4.37;65.72;99671.19;6051403;28;20029;-67
2022/03/31 09:17:58;;;;;;;13.73;5.07;;;;;;;4.49;66.45;99661.41;6051593;28;20353;-69
2022/03/31 09:20:56;;;;;;;12.82;4.40;;;;;;;4.94;63.62;99667.06;6050705;28;20066;-67
2022/03/31 09:23:51;;;;;;;12.48;5.72;;;;;;;5.30;63.24;99669.00;6051903;28;20049;-69
2022/03/31 09:26:49;;;;;;;11.10;5.22;;;;;;;5.63;61.17;99655.44;6050679;28;20480;-69
2022/03/31 09:29:44;;;;;;;10.45;4.90;;;;;;;5.42;61.53;99662.66;6051699;28;20042;-68
2022/03/31 09:32:50;;;;;;;15.13;4.68;;;;;;;5.38;61.51;99653.41;6049961;28;20026;-68
2022/03/31 09:35:46;;;;;;;8.18;4.13;;;;;;;5.17;61.41;99650.88;6050181;28;20061;-68
2022/03/31 09:39:09;;;;;;;8.75;3.78;;;;;;;5.13;61.85;99657.41;6051176;28;20099;-68
2022/03/31 09:42:14;;;;;;;7.13;3.92;;;;;;;5.14;61.86;99658.22;6045319;28;20044;-67
2022/03/31 09:45:10;;;;;;;8.48;4.00;;;;;;;5.45;60.60;99649.22;6050507;28;20481;-70
2022/03/31 09:48:26;;;;;;;10.18;4.22;;;;;;;5.26;60.45;99663.22;6050457;28;20037;-69
2022/03/31 09:51:23;;;;;;;12.10;4.47;;;;;;;5.55;59.14;99662.34;6048271;28;20041;-68
2022/03/31 09:54:23;;;;;;;13.25;4.10;;;;;;;5.39;59.94;99658.50;6056697;28;20042;-68
2022/03/31 09:57:20;;;;;;;6.60;3.55;;;;;;;5.50;58.92;99644.38;6050769;28;20034;-69
2022/03/31 10:00:17;;;;;;;9.52;4.15;;;;;;;5.60;59.08;99654.91;6049846;28;20378;-69
2022/03/31 10:03:13;;;;;;;9.15;4.03;;;;;;;5.72;58.82;99648.50;6051213;28;20073;-68
2022/03/31 10:06:11;;;;;;;9.80;4.13;;;;;;;5.86;58.02;99651.56;6050522;28;20113;-67
2022/03/31 10:09:08;;;;;;;9.13;3.67;;;;;;;5.92;58.15;99653.59;6050185;28;20465;-68
2022/03/31 10:12:26;;;;;;;7.25;3.22;;;;;;;5.84;57.70;99648.19;6048904;28;20046;-69
2022/03/31 10:15:30;;;;;;;6.43;3.70;;;;;;;5.78;57.84;99646.13;6047740;28;20469;-68
2022/03/31 10:18:26;;;;;;;7.93;3.45;;;;;;;6.08;57.73;99639.03;6048429;28;20410;-69
2022/03/31 10:21:29;;;;;;;9.55;3.65;;;;;;;5.94;56.49;99642.94;6047967;28;20026;-67
2022/03/31 10:27:41;;;;;;;7.35;3.17;;;;;;;6.34;56.38;99632.13;6048139;28;20042;-69
2022/03/31 10:30:36;;;;;;;8.15;3.80;;;;;;;6.49;54.71;99633.31;6049611;28;20033;-69
2022/03/31 10:33:35;;;;;;;10.30;2.78;;;;;;;6.85;54.59;99624.47;6050503;28;20034;-69
2022/03/31 10:36:39;;;;;;;6.95;3.38;;;;;;;6.50;55.01;99632.31;6049597;28;20037;-70
2022/03/31 10:39:34;;;;;;;6.72;3.17;;;;;;;6.65;54.45;99617.69;6037404;28;20038;-70
2022/03/31 10:42:29;;;;;;;7.03;3.00;;;;;;;6.78;53.35;99628.69;6049106;28;20025;-69
2022/03/31 10:45:42;;;;;;;6.63;3.33;;;;;;;6.39;53.35;99628.06;6049994;28;20552;-70
2022/03/31 10:48:38;;;;;;;6.20;3.53;;;;;;;6.48;53.81;99627.19;6044231;28;20291;-69
2022/03/31 10:51:41;;;;;;;7.03;3.40;;;;;;;6.41;53.99;99625.31;6049356;28;20030;-69
2022/03/31 10:54:36;;;;;;;6.47;3.28;;;;;;;6.59;54.10;99628.81;6043767;28;20065;-70
2022/03/31 10:57:38;;;;;;;7.57;2.83;;;;;;;6.38;53.91;99617.69;6050423;28;20041;-71
2022/03/31 11:00:34;;;;;;;9.82;4.30;;;;;;;6.35;53.79;99621.47;6049133;28;20032;-70
2022/03/31 11:03:29;;;;;;;6.53;2.92;;;;;;;6.42;53.44;99614.63;6049706;28;20037;-70
2022/03/31 11:06:24;;;;;;;7.35;3.92;;;;;;;6.33;52.60;99598.88;6049029;28;20476;-70
2022/03/31 11:09:27;;;;;;;7.23;3.37;;;;;;;6.17;52.95;99617.09;6049543;28;20615;-69
2022/03/31 11:12:26;;;;;;;9.15;4.22;;;;;;;5.92;53.25;99621.22;6048391;28;20358;-70
2022/03/31 11:15:24;;;;;;;8.18;3.55;;;;;;;6.06;54.16;99617.28;6049925;28;20517;-71
2022/03/31 11:18:21;;;;;;;8.98;3.47;;;;;;;6.04;53.45;99619.22;6049958;28;20041;-70
2022/03/31 11:21:16;;;;;;;8.23;3.47;;;;;;;6.18;53.65;99624.00;6048686;28;20022;-71
2022/03/31 11:24:12;;;;;;;8.38;3.72;;;;;;;6.22;52.61;99615.69;6049573;28;20056;-69
2022/03/31 11:27:07;;;;;;;10.07;3.63;;;;;;;5.95;53.68;99605.94;6049703;28;20034;-69
2022/03/31 11:30:16;;;;;;;6.47;2.90;;;;;;;6.33;52.34;99604.94;6048979;28;20034;-70
2022/03/31 11:33:13;;;;;;;7.43;3.33;;;;;;;6.35;52.72;99605.66;6050703;28;20646;-71
2022/03/31 11:36:08;;;;;;;7.22;3.20;;;;;;;6.20;51.97;99611.53;6049356;28;20046;-70
2022/03/31 11:39:04;;;;;;;7.57;3.10;;;;;;;6.17;52.29;99611.84;6049295;28;20413;-69
2022/03/31 11:42:00;;;;;;;10.68;2.95;;;;;;;6.28;52.09;99604.56;6049134;28;20064;-70
2022/03/31 11:44:56;;;;;;;6.47;2.63;;;;;;;6.17;51.21;99611.84;6049389;28;20065;-70
2022/03/31 11:48:12;;;;;;;6.03;2.77;;;;;;;5.94;51.62;99606.94;6049184;28;20120;-68
2022/03/31 11:51:08;;;;;;;7.97;3.03;;;;;;;6.07;51.28;99605.78;6046717;28;20381;-71
2022/03/31 11:54:08;;;;;;;6.45;2.70;;;;;;;6.49;50.77;99601.72;6047859;28;20083;-72
2022/03/31 11:57:11;;;;;;;8.65;2.92;;;;;;;6.45;50.93;99621.38;6047613;28;20038;-68
2022/03/31 12:00:12;;;;;;;8.05;2.83;;;;;;;6.15;51.00;99611.97;6052709;28;20065;-70
2022/03/31 12:03:09;;;;;;;5.72;2.40;;;;;;;6.03;49.81;99604.41;6051678;28;20034;-70
2022/03/31 12:06:06;;;;;;;5.47;2.67;;;;;;;6.06;50.86;99604.13;6052999;28;20045;-69
2022/03/31 12:09:01;;;;;;;7.28;3.13;;;;;;;6.07;49.91;99600.50;6053763;28;20400;-69
2022/03/31 12:11:57;;;;;;;6.50;2.70;;;;;;;6.23;50.30;99595.44;6052996;28;20037;-70
2022/03/31 12:14:57;;;;;;;7.88;2.97;;;;;;;6.11;49.66;99602.72;6054261;28;20108;-68
2022/03/31 12:17:59;;;;;;;5.88;2.58;;;;;;;6.11;49.85;99607.16;6053207;28;20088;-68
2022/03/31 12:20:58;;;;;;;6.40;2.60;;;;;;;6.09;50.42;99596.75;6053185;28;20046;-69
2022/03/31 12:23:58;;;;;;;4.80;2.50;;;;;;;6.20;49.40;99588.69;6053572;28;20366;-69
2022/03/31 12:27:00;;;;;;;5.07;2.42;;;;;;;6.11;49.47;99602.72;6051852;28;20037;-69
2022/03/31 12:30:04;;;;;;;7.45;2.80;;;;;;;6.06;49.96;99591.78;6053694;28;20033;-70
2022/03/31 12:32:59;;;;;;;7.60;2.75;;;;;;;6.19;50.06;99594.09;6048088;28;20046;-69
2022/03/31 12:36:00;;;;;;;7.20;2.55;;;;;;;6.31;49.87;99595.53;6053401;28;20049;-68
2022/03/31 12:38:56;;;;;;;8.20;2.80;;;;;;;6.29;49.08;99589.59;6052830;28;20053;-68
2022/03/31 12:41:54;;;;;;;9.55;2.70;;;;;;;6.32;49.02;99582.25;6052754;28;20126;-71
2022/03/31 12:44:49;;;;;;;6.10;2.75;;;;;;;6.03;49.08;99583.38;6053052;28;20378;-70
2022/03/31 12:47:47;;;;;;;5.87;2.03;;;;;;;6.06;49.82;99588.34;6052627;28;20041;-71
2022/03/31 12:50:44;;;;;;;8.20;2.80;;;;;;;6.06;49.14;99588.34;6052411;28;20269;-70
2022/03/31 12:53:41;;;;;;;5.90;2.42;;;;;;;5.96;47.87;99593.63;6052792;28;20034;-71
2022/03/31 12:56:36;;;;;;;5.68;2.90;;;;;;;5.74;49.11;99591.31;6052995;28;20042;-70
2022/03/31 12:59:34;;;;;;;5.68;2.63;;;;;;;5.75;48.71;99580.66;6052797;28;20026;-69
2022/03/31 13:02:33;;;;;;;7.50;2.90;;;;;;;5.94;49.25;99590.31;6052148;28;20038;-70
2022/03/31 13:05:30;;;;;;;5.60;3.10;;;;;;;5.97;50.29;99592.66;6052381;28;20057;-69
2022/03/31 13:08:25;;;;;;;5.25;2.63;;;;;;;6.16;49.60;99599.66;6053260;28;20477;-70
2022/03/31 13:11:21;;;;;;;6.53;2.90;;;;;;;6.10;49.43;99593.16;6052898;28;20038;-70
2022/03/31 13:14:17;;;;;;;7.38;3.03;;;;;;;6.13;47.93;99594.69;6052580;28;20053;-69
2022/03/31 13:17:16;;;;;;;6.63;2.60;;;;;;;5.76;47.51;99581.50;6052586;28;20030;-69
2022/03/31 13:20:15;;;;;;;6.18;2.92;;;;;;;5.70;49.02;99582.91;6051459;28;20277;-69
2022/03/31 13:23:10;;;;;;;6.95;2.92;;;;;;;5.62;48.31;99589.84;6052037;28;20540;-70
2022/03/31 13:26:06;;;;;;;6.10;3.00;;;;;;;5.69;48.41;99583.88;6051650;28;20072;-70
2022/03/31 13:29:04;;;;;;;7.03;2.47;;;;;;;5.53;48.61;99591.53;6052256;28;20026;-70
2022/03/31 13:32:00;;;;;;;6.00;2.10;;;;;;;5.47;49.16;99578.94;6051296;28;20047;-70
2022/03/31 13:34:56;;;;;;;6.70;3.10;;;;;;;5.47;48.76;99585.97;6052225;28;20389;-70
2022/03/31 13:37:53;;;;;;;5.78;2.53;;;;;;;5.43;48.42;99577.56;6051695;28;20029;-69
2022/03/31 13:40:48;;;;;;;8.13;3.10;;;;;;;5.54;49.17;99572.16;6051154;28;20120;-70
2022/03/31 13:43:44;;;;;;;5.85;2.65;;;;;;;5.49;48.19;99584.88;6051902;28;20026;-69
2022/03/31 13:46:41;;;;;;;8.13;2.53;;;;;;;5.55;48.01;99580.84;6051872;28;20037;-70
2022/03/31 13:49:39;;;;;;;13.15;2.90;;;;;;;5.50;48.18;99569.94;6051502;28;20032;-71
2022/03/31 13:52:34;;;;;;;4.25;2.15;;;;;;;5.43;47.92;99569.69;6051236;28;20076;-71
2022/03/31 13:55:29;;;;;;;7.47;2.60;;;;;;;5.37;48.63;99572.88;6051796;28;20030;-69
2022/03/31 14:01:38;;;;;;;9.55;3.20;;;;;;;5.35;48.46;99565.09;6050901;28;20034;-69
2022/03/31 14:04:33;;;;;;;7.60;3.13;;;;;;;5.33;47.96;99569.69;6051362;28;20478;-69